Time;durP1;ratioP1;P1;durP2;ratioP2;P2;SDS_P1;SDS_P2;PMS_P1;PMS_P2;Temp;Humidity;BMP_temperature;BMP_pressure;BME280_temperature;BME280_humidity;BME280_pressure;Samples;Min_cycle;Max_cycle;Signal;HPM_P1;HPM_P2
2021/07/31 00:02:02;;;;;;;18.33;3.20;;;15.30;99.90;;;;;;5013237;28;20054;-86
2021/07/31 00:04:29;;;;;;;17.50;3.25;;;15.30;99.90;;;;;;5011122;28;20088;-86
2021/07/31 00:06:56;;;;;;;22.45;3.55;;;15.30;99.90;;;;;;4991873;28;20385;-86
2021/07/31 00:09:23;;;;;;;17.60;3.00;;;15.30;99.90;;;;;;4986913;28;20051;-86
2021/07/31 00:11:50;;;;;;;18.10;3.55;;;15.20;99.90;;;;;;4994909;28;20050;-86
2021/07/31 00:14:17;;;;;;;19.25;3.10;;;15.20;99.90;;;;;;5011919;28;20050;-86
2021/07/31 00:16:45;;;;;;;14.95;2.60;;;15.20;99.90;;;;;;5010860;28;20049;-86
2021/07/31 00:19:12;;;;;;;23.77;3.42;;;15.10;99.90;;;;;;4990973;28;20388;-86
2021/07/31 00:21:38;;;;;;;25.23;3.80;;;15.10;99.90;;;;;;5010564;28;20042;-86
2021/07/31 00:24:05;;;;;;;18.13;3.03;;;15.00;99.90;;;;;;5000109;28;20056;-86
2021/07/31 00:26:32;;;;;;;18.27;3.75;;;15.00;99.90;;;;;;4992237;28;20069;-86
2021/07/31 00:29:01;;;;;;;15.95;2.80;;;15.00;99.90;;;;;;4992369;28;20137;-86
2021/07/31 00:31:28;;;;;;;20.77;3.38;;;14.90;99.90;;;;;;5008696;28;20041;-86
2021/07/31 00:33:55;;;;;;;22.15;3.97;;;14.90;99.90;;;;;;5012175;28;20050;-86
2021/07/31 00:36:23;;;;;;;16.70;3.20;;;14.80;99.90;;;;;;4990155;28;20053;-86
2021/07/31 00:38:50;;;;;;;19.67;3.25;;;14.80;99.90;;;;;;5015436;28;20042;-85
2021/07/31 00:41:17;;;;;;;19.02;3.88;;;14.80;99.90;;;;;;5016975;28;20054;-86
2021/07/31 00:43:44;;;;;;;17.55;3.60;;;14.80;99.90;;;;;;4993729;28;20064;-86
2021/07/31 00:46:11;;;;;;;21.15;3.92;;;14.80;99.90;;;;;;5011626;28;20050;-86
2021/07/31 00:48:39;;;;;;;19.13;3.60;;;14.70;99.90;;;;;;5012106;28;20046;-86
2021/07/31 00:51:06;;;;;;;20.92;3.88;;;14.70;99.90;;;;;;5001069;28;20370;-85
2021/07/31 00:53:33;;;;;;;22.52;4.53;;;14.70;99.90;;;;;;5006879;28;20050;-86
2021/07/31 00:56:00;;;;;;;21.08;3.80;;;14.70;99.90;;;;;;5012929;28;20424;-86
2021/07/31 00:58:27;;;;;;;18.45;4.38;;;14.60;99.90;;;;;;4990729;28;20049;-86
2021/07/31 01:00:54;;;;;;;18.25;3.63;;;14.60;99.90;;;;;;4991209;28;20052;-86
2021/07/31 01:03:21;;;;;;;19.80;3.30;;;14.60;99.90;;;;;;4986183;28;20133;-85
2021/07/31 01:05:49;;;;;;;18.73;3.97;;;14.60;99.90;;;;;;5011396;28;20064;-86
2021/07/31 01:08:16;;;;;;;15.85;3.70;;;14.60;99.90;;;;;;5011490;28;20068;-85
2021/07/31 01:10:43;;;;;;;17.05;3.90;;;14.60;99.90;;;;;;5010040;28;20041;-86
2021/07/31 01:13:11;;;;;;;15.68;3.42;;;14.50;99.90;;;;;;4990583;28;20137;-86
2021/07/31 01:16:03;;;;;;;13.57;3.17;;;14.60;99.90;;;;;;5010105;28;20046;-86
2021/07/31 01:18:30;;;;;;;19.25;4.07;;;14.50;99.90;;;;;;4986855;28;20050;-86
2021/07/31 01:20:57;;;;;;;18.42;4.00;;;14.50;99.90;;;;;;5011958;28;20081;-86
2021/07/31 01:23:24;;;;;;;20.98;4.05;;;14.50;99.90;;;;;;4990640;28;20061;-86
2021/07/31 01:25:52;;;;;;;18.23;3.85;;;14.50;99.90;;;;;;5012040;28;20050;-86
2021/07/31 01:28:19;;;;;;;17.08;3.88;;;14.50;99.90;;;;;;5011191;28;20385;-86
2021/07/31 01:30:46;;;;;;;22.77;4.25;;;14.50;99.90;;;;;;4993464;28;20038;-86
2021/07/31 01:33:13;;;;;;;18.05;3.88;;;14.50;99.90;;;;;;4990493;28;20065;-86
2021/07/31 01:35:40;;;;;;;16.98;3.53;;;14.50;99.90;;;;;;5010015;28;20073;-86
2021/07/31 01:38:07;;;;;;;14.40;3.53;;;14.50;99.90;;;;;;5011350;28;20054;-86
2021/07/31 01:40:34;;;;;;;21.42;4.10;;;14.40;99.90;;;;;;5010986;28;20053;-86
2021/07/31 01:43:01;;;;;;;17.45;3.08;;;14.40;99.90;;;;;;5011429;28;20111;-86
2021/07/31 01:45:29;;;;;;;23.08;3.67;;;14.40;99.90;;;;;;4990085;28;20042;-86
2021/07/31 01:47:56;;;;;;;17.30;3.67;;;14.40;99.90;;;;;;5011626;28;20045;-86
2021/07/31 01:50:23;;;;;;;22.33;3.53;;;14.40;99.90;;;;;;5010381;28;20499;-86
2021/07/31 01:52:50;;;;;;;15.38;3.47;;;14.40;99.90;;;;;;5012153;28;20464;-86
2021/07/31 01:55:17;;;;;;;20.77;3.17;;;14.40;99.90;;;;;;5012876;28;20057;-86
2021/07/31 01:57:44;;;;;;;18.00;3.20;;;14.40;99.90;;;;;;5020908;28;20049;-86
2021/07/31 02:00:11;;;;;;;22.50;3.83;;;14.40;99.90;;;;;;5017287;28;20132;-86
2021/07/31 02:02:38;;;;;;;17.17;3.88;;;14.30;99.90;;;;;;5014699;28;20046;-86
2021/07/31 02:05:06;;;;;;;19.63;4.00;;;14.30;99.90;;;;;;5014497;28;20046;-86
2021/07/31 02:07:33;;;;;;;14.63;3.65;;;14.30;99.90;;;;;;5009506;28;20541;-86
2021/07/31 02:10:00;;;;;;;21.58;3.90;;;14.30;99.90;;;;;;5013974;28;20038;-86
2021/07/31 02:12:27;;;;;;;21.95;4.00;;;14.30;99.90;;;;;;5014195;28;20068;-86
2021/07/31 02:14:54;;;;;;;19.13;3.83;;;14.30;99.90;;;;;;5014636;28;20045;-86
2021/07/31 02:17:21;;;;;;;26.00;3.65;;;14.30;99.90;;;;;;4993425;28;20179;-86
2021/07/31 02:19:48;;;;;;;18.77;4.55;;;14.30;99.90;;;;;;5014662;28;20049;-86
2021/07/31 02:22:15;;;;;;;15.13;3.38;;;14.30;99.90;;;;;;4992993;28;20476;-86
2021/07/31 02:24:42;;;;;;;16.88;3.85;;;14.30;99.90;;;;;;5013163;28;20477;-86
2021/07/31 02:27:09;;;;;;;19.83;3.75;;;14.30;99.90;;;;;;5013762;28;20050;-86
2021/07/31 02:29:36;;;;;;;17.25;3.30;;;14.20;99.90;;;;;;4994743;28;20053;-85
2021/07/31 02:32:03;;;;;;;30.77;4.22;;;14.30;99.90;;;;;;5014793;28;20495;-86
2021/07/31 02:34:30;;;;;;;19.02;3.20;;;14.30;99.90;;;;;;4993937;28;20044;-86
2021/07/31 02:36:57;;;;;;;15.95;3.03;;;14.30;99.90;;;;;;5014125;28;20136;-85
2021/07/31 02:39:24;;;;;;;21.58;3.40;;;14.20;99.90;;;;;;5013527;28;20049;-86
2021/07/31 02:41:51;;;;;;;20.30;3.30;;;14.20;99.90;;;;;;5007921;28;20052;-86
2021/07/31 02:44:18;;;;;;;22.02;4.00;;;14.20;99.90;;;;;;5013612;28;20049;-85
2021/07/31 02:46:45;;;;;;;15.85;3.65;;;14.20;99.90;;;;;;5014476;28;20042;-86
2021/07/31 02:49:12;;;;;;;18.88;3.08;;;14.20;99.90;;;;;;4988323;28;20141;-86
2021/07/31 02:51:39;;;;;;;14.52;3.42;;;14.20;99.90;;;;;;5012251;28;20046;-86
2021/07/31 02:54:06;;;;;;;18.33;3.28;;;14.20;99.90;;;;;;5013254;28;20038;-85
2021/07/31 02:56:33;;;;;;;18.33;3.42;;;14.10;99.90;;;;;;4994212;28;20078;-86
2021/07/31 02:59:00;;;;;;;20.02;3.28;;;14.20;99.90;;;;;;4993677;28;20050;-86
2021/07/31 03:01:27;;;;;;;15.50;3.45;;;14.10;99.90;;;;;;5010353;28;20046;-86
2021/07/31 03:03:55;;;;;;;19.73;3.40;;;14.20;99.90;;;;;;4999782;28;20105;-86
2021/07/31 03:06:22;;;;;;;19.55;3.33;;;14.20;99.90;;;;;;4987540;28;20042;-86
2021/07/31 03:08:49;;;;;;;18.92;3.28;;;14.10;99.90;;;;;;5013540;28;20124;-86
2021/07/31 03:11:16;;;;;;;16.67;3.38;;;14.20;99.90;;;;;;4992377;28;20057;-86
2021/07/31 03:13:43;;;;;;;17.67;3.55;;;14.20;99.90;;;;;;4996298;28;20470;-86
2021/07/31 03:16:10;;;;;;;16.85;3.22;;;14.20;99.90;;;;;;5019446;28;20045;-86
2021/07/31 03:18:37;;;;;;;15.25;3.30;;;14.30;99.90;;;;;;5016789;28;20473;-86
2021/07/31 03:21:04;;;;;;;12.73;3.10;;;14.30;99.90;;;;;;5012816;28;20052;-86
2021/07/31 03:23:31;;;;;;;22.02;3.22;;;14.30;99.90;;;;;;4996210;28;20359;-86
2021/07/31 03:26:00;;;;;;;18.17;3.50;;;14.40;99.90;;;;;;4994491;28;20058;-86
2021/07/31 03:28:30;;;;;;;13.65;3.60;;;14.40;99.90;;;;;;5009393;28;20057;-86
2021/07/31 03:30:58;;;;;;;13.25;3.40;;;14.40;99.90;;;;;;5013222;28;20060;-86
2021/07/31 03:33:25;;;;;;;20.42;3.67;;;14.40;99.90;;;;;;4991472;28;20121;-86
2021/07/31 03:35:53;;;;;;;15.20;3.13;;;14.40;99.90;;;;;;5005231;28;20396;-86
2021/07/31 03:38:21;;;;;;;19.25;3.30;;;14.40;99.90;;;;;;4991853;28;20097;-86
2021/07/31 03:40:48;;;;;;;16.35;3.40;;;14.40;99.90;;;;;;5013009;28;20526;-86
2021/07/31 03:43:15;;;;;;;11.73;2.90;;;14.40;99.90;;;;;;4991692;28;20054;-86
2021/07/31 03:45:42;;;;;;;11.32;3.13;;;14.50;99.90;;;;;;5011543;28;20046;-86
2021/07/31 03:48:09;;;;;;;15.05;3.10;;;14.40;99.90;;;;;;5001609;28;20038;-86
2021/07/31 03:50:40;;;;;;;13.50;3.65;;;14.40;99.90;;;;;;4993511;28;20384;-86
2021/07/31 03:53:07;;;;;;;22.20;4.15;;;14.40;99.90;;;;;;5012488;28;20053;-86
2021/07/31 03:55:34;;;;;;;14.85;3.25;;;14.40;99.90;;;;;;5013116;28;20500;-86
2021/07/31 03:58:02;;;;;;;14.50;3.38;;;14.40;99.90;;;;;;5012706;28;20430;-86
2021/07/31 04:00:29;;;;;;;14.43;3.50;;;14.40;99.90;;;;;;5012443;28;20041;-86
2021/07/31 04:02:56;;;;;;;13.93;3.08;;;14.30;99.90;;;;;;5012431;28;20034;-87
2021/07/31 04:05:24;;;;;;;17.02;2.97;;;14.30;99.90;;;;;;4991248;28;20081;-86
2021/07/31 04:07:51;;;;;;;16.10;3.10;;;14.30;99.90;;;;;;5013082;28;20045;-86
2021/07/31 04:10:18;;;;;;;18.75;3.50;;;14.30;99.90;;;;;;5011833;28;20045;-86
2021/07/31 04:12:45;;;;;;;14.10;4.00;;;14.20;99.90;;;;;;4989739;28;20421;-86
2021/07/31 04:15:16;;;;;;;12.65;3.15;;;14.20;99.90;;;;;;5011706;28;20129;-86
2021/07/31 04:17:43;;;;;;;19.02;3.60;;;14.20;99.90;;;;;;5011716;28;20050;-86
2021/07/31 04:20:11;;;;;;;14.30;3.28;;;14.20;99.90;;;;;;5011975;28;20073;-86
2021/07/31 04:22:38;;;;;;;18.10;3.17;;;14.20;99.90;;;;;;5012814;28;20415;-86
2021/07/31 04:25:05;;;;;;;13.38;3.45;;;14.20;99.90;;;;;;5011713;28;20136;-86
2021/07/31 04:27:33;;;;;;;18.95;3.40;;;14.20;99.90;;;;;;4987586;28;20042;-86
2021/07/31 04:30:01;;;;;;;17.47;3.67;;;14.10;99.90;;;;;;4991863;28;20038;-86
2021/07/31 04:32:28;;;;;;;15.00;3.20;;;14.10;99.90;;;;;;4991410;28;20293;-86
2021/07/31 04:34:55;;;;;;;11.18;3.33;;;14.10;99.90;;;;;;5010845;28;20054;-86
2021/07/31 04:37:22;;;;;;;13.43;3.55;;;14.10;99.90;;;;;;5014830;28;20046;-86
2021/07/31 04:39:49;;;;;;;12.30;3.35;;;14.00;99.90;;;;;;4994447;28;20057;-86
2021/07/31 04:42:16;;;;;;;15.48;3.40;;;14.00;99.90;;;;;;5011138;28;20048;-86
2021/07/31 04:44:43;;;;;;;14.18;2.78;;;14.00;99.90;;;;;;4993080;28;20129;-86
2021/07/31 04:47:10;;;;;;;12.13;3.30;;;14.00;99.90;;;;;;4990790;28;20046;-86
2021/07/31 04:49:37;;;;;;;9.95;3.30;;;14.00;99.90;;;;;;5010564;28;20532;-87
2021/07/31 04:52:08;;;;;;;14.70;3.20;;;14.00;99.90;;;;;;5011519;28;20056;-86
2021/07/31 04:54:42;;;;;;;13.82;3.13;;;14.00;99.90;;;;;;5003336;28;20057;-86
2021/07/31 04:57:09;;;;;;;11.73;3.70;;;14.00;99.90;;;;;;5011270;28;20441;-86
2021/07/31 04:59:36;;;;;;;11.70;3.17;;;13.90;99.90;;;;;;4992460;28;20054;-86
2021/07/31 05:02:04;;;;;;;13.18;3.50;;;14.00;99.90;;;;;;4991411;28;20054;-86
2021/07/31 05:04:31;;;;;;;15.02;3.38;;;14.00;99.90;;;;;;4987447;28;20039;-86
2021/07/31 05:06:59;;;;;;;10.50;2.97;;;14.00;99.90;;;;;;4991121;28;20058;-86
2021/07/31 05:09:26;;;;;;;15.90;3.38;;;14.00;99.90;;;;;;5007057;28;20125;-87
2021/07/31 05:11:53;;;;;;;13.18;3.65;;;14.00;99.90;;;;;;5011977;28;20150;-86
2021/07/31 05:14:20;;;;;;;13.90;3.45;;;14.00;99.90;;;;;;5011163;28;20540;-86
2021/07/31 05:16:47;;;;;;;12.65;3.42;;;14.00;99.90;;;;;;5012398;28;20061;-86
2021/07/31 05:19:14;;;;;;;15.25;3.85;;;14.00;99.90;;;;;;5011282;28;20050;-86
2021/07/31 05:21:41;;;;;;;15.25;3.55;;;14.00;99.90;;;;;;4992755;28;20042;-86
2021/07/31 05:24:08;;;;;;;19.65;3.95;;;14.10;99.90;;;;;;5011257;28;20117;-86
2021/07/31 05:26:39;;;;;;;16.33;3.78;;;14.10;99.90;;;;;;5011748;28;20053;-85
2021/07/31 05:29:07;;;;;;;16.10;3.75;;;14.10;99.90;;;;;;5012529;28;20045;-86
2021/07/31 05:31:34;;;;;;;15.63;3.90;;;14.20;99.90;;;;;;4996320;28;20499;-87
2021/07/31 05:34:02;;;;;;;11.45;3.33;;;14.10;99.90;;;;;;5015616;28;20127;-86
2021/07/31 05:36:30;;;;;;;15.13;3.60;;;14.20;99.90;;;;;;4991371;28;20090;-86
2021/07/31 05:38:57;;;;;;;14.53;3.07;;;14.20;99.90;;;;;;4999900;28;20046;-86
2021/07/31 05:41:24;;;;;;;14.00;3.10;;;14.20;99.90;;;;;;5014464;28;20137;-85
2021/07/31 05:43:51;;;;;;;14.27;3.47;;;14.20;99.90;;;;;;5001389;28;20061;-85
2021/07/31 05:46:18;;;;;;;12.48;3.20;;;14.20;99.90;;;;;;4992727;28;20397;-85
2021/07/31 05:48:46;;;;;;;13.55;3.50;;;14.20;99.90;;;;;;4996873;28;20050;-86
2021/07/31 05:51:14;;;;;;;14.43;3.20;;;14.20;99.90;;;;;;4989782;28;20050;-87
2021/07/31 05:53:42;;;;;;;11.93;3.03;;;14.20;99.90;;;;;;5001612;28;20038;-87
2021/07/31 05:56:09;;;;;;;7.97;3.03;;;14.20;99.90;;;;;;5017311;28;20041;-86
2021/07/31 05:58:36;;;;;;;15.75;3.60;;;14.20;99.90;;;;;;5015459;28;20042;-86
2021/07/31 06:01:09;;;;;;;15.85;3.85;;;14.20;99.90;;;;;;5014272;28;20056;-86
2021/07/31 06:03:37;;;;;;;13.27;3.38;;;14.30;99.90;;;;;;5014557;28;20057;-86
2021/07/31 06:06:05;;;;;;;14.15;3.78;;;14.40;99.90;;;;;;4990422;28;20387;-86
2021/07/31 06:08:32;;;;;;;12.45;2.90;;;14.40;99.90;;;;;;5012152;28;20389;-86
2021/07/31 06:11:08;;;;;;;12.55;3.20;;;14.50;99.90;;;;;;5011008;28;20456;-86
2021/07/31 06:13:36;;;;;;;7.05;2.67;;;14.60;99.90;;;;;;5012998;28;20117;-86
2021/07/31 06:16:08;;;;;;;11.10;2.95;;;14.70;99.90;;;;;;4989443;28;20053;-86
2021/07/31 06:18:37;;;;;;;7.57;2.60;;;14.80;99.90;;;;;;5011820;28;20519;-87
2021/07/31 06:21:04;;;;;;;9.15;2.70;;;14.80;99.90;;;;;;5014101;28;20052;-85
2021/07/31 06:23:32;;;;;;;9.10;2.50;;;14.90;99.90;;;;;;4997013;28;20398;-85
2021/07/31 06:26:03;;;;;;;10.75;3.05;;;14.90;99.90;;;;;;4995440;28;20046;-89
2021/07/31 06:28:31;;;;;;;12.10;2.60;;;15.00;99.90;;;;;;4968928;28;20041;-86
2021/07/31 06:30:58;;;;;;;9.18;2.55;;;15.10;99.90;;;;;;5014248;28;20496;-86
2021/07/31 06:33:25;;;;;;;7.95;2.92;;;15.10;99.90;;;;;;5013640;28;20054;-86
2021/07/31 06:35:52;;;;;;;6.85;2.13;;;15.20;99.90;;;;;;4993388;28;20050;-86
2021/07/31 06:38:19;;;;;;;10.25;2.40;;;15.30;99.90;;;;;;5009303;28;20477;-86
2021/07/31 06:40:46;;;;;;;7.60;1.92;;;15.30;99.90;;;;;;5013869;28;20038;-86
2021/07/31 06:43:13;;;;;;;7.20;1.92;;;15.40;99.90;;;;;;5013503;28;20053;-86
2021/07/31 06:45:41;;;;;;;8.30;2.33;;;15.50;99.90;;;;;;4994947;28;20046;-86
2021/07/31 06:48:08;;;;;;;5.82;1.75;;;15.50;99.90;;;;;;4992636;28;20417;-86
2021/07/31 06:50:36;;;;;;;6.95;1.88;;;15.60;99.90;;;;;;4994371;28;20042;-86
2021/07/31 06:53:02;;;;;;;9.85;1.85;;;15.70;99.90;;;;;;5014261;28;20052;-86
2021/07/31 06:55:29;;;;;;;10.40;2.30;;;15.70;99.90;;;;;;5013205;28;20487;-86
2021/07/31 06:57:56;;;;;;;9.38;2.13;;;15.80;99.90;;;;;;5013694;28;20381;-86
2021/07/31 07:00:24;;;;;;;8.35;1.92;;;15.80;99.90;;;;;;5013219;28;20137;-86
2021/07/31 07:02:51;;;;;;;7.22;1.95;;;15.90;99.90;;;;;;4995905;28;20549;-87
2021/07/31 07:05:18;;;;;;;6.43;2.00;;;15.90;99.90;;;;;;5013166;28;20081;-87
2021/07/31 07:07:45;;;;;;;11.00;2.20;;;16.00;99.90;;;;;;5012193;28;20056;-87
2021/07/31 07:10:13;;;;;;;6.47;1.80;;;16.10;99.90;;;;;;5014202;28;20084;-86
2021/07/31 07:12:40;;;;;;;6.32;1.58;;;16.20;99.90;;;;;;5027662;28;20042;-86
2021/07/31 07:15:07;;;;;;;6.13;1.80;;;16.30;99.90;;;;;;5005398;28;20066;-86
2021/07/31 07:17:34;;;;;;;9.40;1.80;;;16.30;99.90;;;;;;5008840;28;20041;-86
2021/07/31 07:20:05;;;;;;;8.57;1.73;;;16.30;99.90;;;;;;5013934;28;20073;-87
2021/07/31 07:22:32;;;;;;;9.45;2.70;;;16.40;99.90;;;;;;5013354;28;20077;-87
2021/07/31 07:24:59;;;;;;;6.63;1.70;;;16.40;99.90;;;;;;5012909;28;20408;-86
2021/07/31 07:27:25;;;;;;;5.50;1.60;;;16.50;99.90;;;;;;5012215;28;20145;-86
2021/07/31 07:29:53;;;;;;;6.78;1.65;;;16.50;99.90;;;;;;4992585;28;20082;-86
2021/07/31 07:32:20;;;;;;;5.88;1.80;;;16.50;99.90;;;;;;4996403;28;20540;-86
2021/07/31 07:34:47;;;;;;;6.82;2.00;;;16.60;99.90;;;;;;5010450;28;20042;-86
2021/07/31 07:37:13;;;;;;;6.00;1.88;;;16.60;99.90;;;;;;4991468;28;20065;-86
2021/07/31 07:39:40;;;;;;;6.00;2.25;;;16.70;99.90;;;;;;5010476;28;20470;-87
2021/07/31 07:42:07;;;;;;;5.43;1.73;;;16.80;99.90;;;;;;4991957;28;20085;-86
2021/07/31 07:44:34;;;;;;;5.63;1.77;;;16.80;99.90;;;;;;4994453;28;20397;-86
2021/07/31 07:47:02;;;;;;;5.20;1.63;;;16.90;99.90;;;;;;5009114;28;20045;-86
2021/07/31 07:49:30;;;;;;;6.72;2.08;;;17.00;99.90;;;;;;5010247;28;20389;-86
2021/07/31 07:51:57;;;;;;;8.02;1.95;;;17.10;99.90;;;;;;4988734;28;20061;-86
2021/07/31 07:54:23;;;;;;;7.05;1.85;;;17.10;99.90;;;;;;5006330;28;20457;-86
2021/07/31 07:56:50;;;;;;;5.70;1.70;;;17.20;99.90;;;;;;5011812;28;20069;-86
2021/07/31 07:59:17;;;;;;;5.53;1.70;;;17.30;99.90;;;;;;5010977;28;20054;-86
2021/07/31 08:01:46;;;;;;;4.70;1.50;;;17.30;99.90;;;;;;4992869;28;20046;-87
2021/07/31 08:04:13;;;;;;;6.53;1.70;;;17.40;99.90;;;;;;4989818;28;20094;-86
2021/07/31 08:06:41;;;;;;;8.20;1.90;;;17.50;99.90;;;;;;4991655;28;20038;-86
2021/07/31 08:09:08;;;;;;;6.45;1.85;;;17.50;99.90;;;;;;5011656;28;20056;-86
2021/07/31 08:11:35;;;;;;;6.80;1.55;;;17.60;99.90;;;;;;5011216;28;20050;-86
2021/07/31 08:14:02;;;;;;;6.50;1.40;;;17.50;99.90;;;;;;5008246;28;20052;-86
2021/07/31 08:16:29;;;;;;;7.07;1.83;;;17.60;99.90;;;;;;4989463;28;20046;-85
2021/07/31 08:18:56;;;;;;;4.63;1.33;;;17.60;99.90;;;;;;4991549;28;20412;-86
2021/07/31 08:21:23;;;;;;;4.40;1.38;;;17.70;99.90;;;;;;4982653;28;20046;-86
2021/07/31 08:23:50;;;;;;;5.90;1.30;;;17.70;99.90;;;;;;5008481;28;20136;-86
2021/07/31 08:26:17;;;;;;;4.93;1.40;;;17.80;99.90;;;;;;5010785;28;20046;-86
2021/07/31 08:28:44;;;;;;;4.15;1.20;;;17.80;99.90;;;;;;5009627;28;20050;-86
2021/07/31 08:31:14;;;;;;;3.58;1.00;;;17.90;99.90;;;;;;5017140;28;20481;-86
2021/07/31 08:33:42;;;;;;;4.45;1.23;;;17.90;99.90;;;;;;4991808;28;20053;-86
2021/07/31 08:36:09;;;;;;;5.40;1.10;;;17.90;99.90;;;;;;5011916;28;20133;-86
2021/07/31 08:38:36;;;;;;;3.42;1.00;;;17.80;99.90;;;;;;4990372;28;20126;-86
2021/07/31 08:41:04;;;;;;;4.32;1.00;;;17.80;99.90;;;;;;4989405;28;20065;-85
2021/07/31 08:43:31;;;;;;;2.50;0.85;;;17.90;99.90;;;;;;4992033;28;20053;-86
2021/07/31 08:46:00;;;;;;;4.80;1.48;;;18.00;99.90;;;;;;5012586;28;20048;-85
2021/07/31 08:48:29;;;;;;;7.38;1.35;;;18.10;99.90;;;;;;5010777;28;20392;-86
2021/07/31 08:50:58;;;;;;;6.82;1.42;;;18.30;99.90;;;;;;4992842;28;20460;-86
2021/07/31 08:53:28;;;;;;;4.30;1.15;;;18.40;99.90;;;;;;5003523;28;20083;-86
2021/07/31 08:55:56;;;;;;;5.57;1.58;;;18.50;99.90;;;;;;5010484;28;20127;-86
2021/07/31 08:58:23;;;;;;;5.45;1.40;;;18.60;99.90;;;;;;5008717;28;20132;-86
2021/07/31 09:00:52;;;;;;;6.43;1.88;;;18.80;99.90;;;;;;4995629;28;20056;-86
2021/07/31 09:03:19;;;;;;;;;;;18.90;99.90;;;;;;5012945;28;20132;-86
2021/07/31 09:05:47;;;;;;;4.70;1.15;;;18.90;99.90;;;;;;5015248;28;19961;-86
2021/07/31 09:08:14;;;;;;;4.22;1.10;;;19.00;99.90;;;;;;5013635;28;20117;-85
2021/07/31 09:10:43;;;;;;;4.80;1.13;;;18.90;99.90;;;;;;5016309;28;20053;-86
2021/07/31 09:13:13;;;;;;;6.80;1.25;;;18.90;99.90;;;;;;5014569;28;20041;-86
2021/07/31 09:15:46;;;;;;;4.85;1.20;;;19.00;99.90;;;;;;5013633;28;20049;-86
2021/07/31 09:18:29;;;;;;;5.32;1.45;;;19.20;99.90;;;;;;5012635;28;20527;-86
2021/07/31 09:21:15;;;;;;;3.63;1.20;;;19.40;99.90;;;;;;5008388;28;20049;-86
2021/07/31 09:23:47;;;;;;;4.88;1.30;;;19.50;99.90;;;;;;5013005;28;20136;-86
2021/07/31 09:26:16;;;;;;;7.13;1.58;;;19.30;99.90;;;;;;5011686;28;20048;-87
2021/07/31 09:28:45;;;;;;;3.30;1.23;;;19.00;99.90;;;;;;5012801;28;20045;-86
2021/07/31 09:31:20;;;;;;;7.05;1.52;;;18.90;99.90;;;;;;5015097;28;20052;-86
2021/07/31 09:33:49;;;;;;;6.47;1.33;;;18.80;99.90;;;;;;5013736;28;20136;-86
2021/07/31 09:36:17;;;;;;;6.45;1.60;;;18.80;99.90;;;;;;5015084;28;20054;-86
2021/07/31 09:38:46;;;;;;;7.25;1.45;;;18.80;99.90;;;;;;4996610;28;20501;-86
2021/07/31 09:41:36;;;;;;;4.65;1.20;;;19.00;99.90;;;;;;5011769;28;20464;-86
2021/07/31 09:44:10;;;;;;;5.25;1.33;;;19.30;99.90;;;;;;5013616;28;20078;-86
2021/07/31 09:46:45;;;;;;;6.15;1.70;;;19.40;99.90;;;;;;5017297;28;20038;-86
2021/07/31 09:49:15;;;;;;;4.15;1.35;;;19.30;99.90;;;;;;5022884;28;20144;-87
2021/07/31 10:12:42;;;;;;;4.43;1.58;;;19.10;99.90;;;;;;4929382;29;20443;-88
2021/07/31 10:15:10;;;;;;;5.80;1.50;;;19.20;99.90;;;;;;4913615;29;20417;-89
2021/07/31 10:17:41;;;;;;;6.97;1.70;;;19.20;99.90;;;;;;4929551;29;20046;-88
2021/07/31 10:20:09;;;;;;;4.07;1.00;;;19.30;99.90;;;;;;4898317;29;20062;-89
2021/07/31 10:22:45;;;;;;;4.15;1.00;;;19.30;99.90;;;;;;4919934;29;20044;-88
2021/07/31 10:25:17;;;;;;;4.28;1.10;;;19.50;99.90;;;;;;4930597;29;20082;-89
2021/07/31 10:27:53;;;;;;;4.97;1.40;;;19.60;99.90;;;;;;4909541;29;20142;-89
2021/07/31 10:30:26;;;;;;;3.05;1.02;;;19.80;99.90;;;;;;4916860;29;20044;-89
2021/07/31 10:32:55;;;;;;;4.00;1.20;;;19.90;99.90;;;;;;4915090;29;20103;-89
2021/07/31 10:35:35;;;;;;;3.97;1.08;;;20.00;99.90;;;;;;4927104;29;20056;-89
2021/07/31 10:38:08;;;;;;;5.85;1.55;;;20.00;99.90;;;;;;4916287;29;20048;-91
2021/07/31 10:40:42;;;;;;;5.55;1.38;;;20.00;99.90;;;;;;4916405;29;20050;-88
2021/07/31 10:47:19;;;;;;;3.92;0.88;;;19.80;99.90;;;;;;4845300;29;20093;-86
2021/07/31 10:49:47;;;;;;;7.93;5.88;;;19.60;99.90;;;;;;4853976;29;20505;-88
2021/07/31 10:52:53;;;;;;;3.08;1.13;;;19.60;99.90;;;;;;4847815;29;20132;-88
2021/07/31 10:55:25;;;;;;;4.38;1.00;;;19.40;99.90;;;;;;4841790;29;20416;-89
2021/07/31 10:57:52;;;;;;;2.65;0.70;;;19.30;99.90;;;;;;4836994;29;20128;-88
2021/07/31 11:00:26;;;;;;;1.55;0.50;;;19.20;99.90;;;;;;4828482;29;20057;-89
2021/07/31 11:03:03;;;;;;;2.08;0.63;;;19.00;99.90;;;;;;4847435;29;20065;-85
2021/07/31 11:05:49;;;;;;;1.45;0.40;;;18.90;99.90;;;;;;4842026;29;20058;-85
2021/07/31 11:08:20;;;;;;;2.05;0.47;;;18.90;99.90;;;;;;4839894;29;20687;-84
2021/07/31 11:10:55;;;;;;;1.92;0.90;;;18.90;99.90;;;;;;4845035;29;20064;-87
2021/07/31 11:13:22;;;;;;;1.65;0.55;;;19.10;99.90;;;;;;4850119;29;20061;-88
2021/07/31 11:16:06;;;;;;;2.00;0.68;;;19.30;99.90;;;;;;4856008;29;20053;-88
2021/07/31 11:18:36;;;;;;;2.15;0.70;;;19.40;99.90;;;;;;4849338;29;20050;-86
2021/07/31 11:21:42;;;;;;;3.20;0.60;;;19.50;99.90;;;;;;4859513;29;20050;-85
2021/07/31 11:24:16;;;;;;;1.95;0.68;;;19.70;99.90;;;;;;4933401;28;20576;-86
2021/07/31 11:26:48;;;;;;;2.55;0.60;;;19.70;99.90;;;;;;4943420;28;20040;-85
2021/07/31 11:29:21;;;;;;;3.38;0.90;;;19.60;99.90;;;;;;4913011;28;20107;-86
2021/07/31 11:32:11;;;;;;;2.15;0.70;;;19.50;99.90;;;;;;4950985;28;20047;-86
2021/07/31 11:34:44;;;;;;;1.95;0.50;;;19.40;99.90;;;;;;4948691;28;20074;-85
2021/07/31 11:37:13;;;;;;;2.08;0.73;;;19.40;99.90;;;;;;4945774;28;20516;-86
2021/07/31 11:39:41;;;;;;;;;;;19.50;99.90;;;;;;4946284;28;20047;-87
2021/07/31 11:42:18;;;;;;;2.00;0.57;;;19.50;99.90;;;;;;4929724;29;20306;-86
2021/07/31 11:44:45;;;;;;;3.10;0.80;;;19.40;99.90;;;;;;4926415;28;20043;-86
2021/07/31 11:47:12;;;;;;;2.55;0.98;;;19.30;99.90;;;;;;4934183;28;20042;-86
2021/07/31 11:49:40;;;;;;;3.53;0.80;;;19.40;99.90;;;;;;4946473;28;20051;-85
2021/07/31 11:52:10;;;;;;;3.35;0.75;;;19.50;99.90;;;;;;4941228;28;20044;-85
2021/07/31 11:54:42;;;;;;;3.75;0.63;;;19.50;99.90;;;;;;4931798;28;20406;-85
2021/07/31 11:57:09;;;;;;;3.80;0.73;;;19.60;99.90;;;;;;4946246;28;20418;-85
2021/07/31 11:59:38;;;;;;;3.47;0.85;;;19.70;99.90;;;;;;4930217;29;20050;-86
2021/07/31 12:02:06;;;;;;;2.83;0.80;;;19.70;99.90;;;;;;4945864;28;20047;-85
2021/07/31 12:04:52;;;;;;;2.97;0.75;;;19.70;99.90;;;;;;4941365;28;20052;-85
2021/07/31 12:07:25;;;;;;;2.42;0.88;;;19.70;99.90;;;;;;4933949;28;20487;-86
2021/07/31 12:10:13;;;;;;;2.63;0.90;;;19.60;99.90;;;;;;4938866;28;20693;-86
2021/07/31 12:12:43;;;;;;;1.42;0.80;;;19.80;99.90;;;;;;4940077;28;20452;-86
2021/07/31 12:15:19;;;;;;;1.55;0.60;;;19.90;99.90;;;;;;4930456;28;20047;-85
2021/07/31 12:17:59;;;;;;;3.80;0.80;;;19.90;99.90;;;;;;4923599;29;20058;-86
2021/07/31 12:20:30;;;;;;;3.38;0.80;;;19.90;99.90;;;;;;4933447;28;20043;-86
2021/07/31 12:22:58;;;;;;;1.77;0.50;;;19.90;99.90;;;;;;4945308;28;20478;-86
2021/07/31 12:25:31;;;;;;;1.88;0.57;;;19.80;99.90;;;;;;4938264;29;20043;-88
2021/07/31 12:28:00;;;;;;;4.28;0.85;;;19.80;99.90;;;;;;4922591;29;20134;-85
2021/07/31 12:30:38;;;;;;;3.35;0.63;;;19.90;99.90;;;;;;4942975;28;20394;-86
2021/07/31 12:33:05;;;;;;;3.20;0.60;;;20.00;99.90;;;;;;4911967;28;20069;-86
2021/07/31 12:35:39;;;;;;;1.90;0.60;;;20.10;99.90;;;;;;4945581;28;20109;-86
2021/07/31 12:38:09;;;;;;;1.58;0.60;;;20.30;99.90;;;;;;4928206;29;20060;-86
2021/07/31 12:40:37;;;;;;;2.43;0.67;;;20.50;99.90;;;;;;4927467;29;20079;-86
2021/07/31 12:43:12;;;;;;;2.15;0.70;;;20.40;99.90;;;;;;4941747;28;20051;-85
2021/07/31 12:45:43;;;;;;;1.75;0.52;;;20.20;99.90;;;;;;4928799;28;20126;-85
2021/07/31 12:48:11;;;;;;;2.78;0.70;;;20.00;99.90;;;;;;4925957;29;20121;-85
2021/07/31 12:50:39;;;;;;;2.28;0.50;;;20.00;99.90;;;;;;4929404;29;20397;-85
2021/07/31 12:53:07;;;;;;;2.22;0.65;;;20.10;99.90;;;;;;4941959;28;20059;-85
2021/07/31 12:55:34;;;;;;;5.07;1.15;;;20.00;99.90;;;;;;4946726;28;20039;-87
2021/07/31 12:58:02;;;;;;;1.58;0.65;;;19.90;99.90;;;;;;4933269;28;20356;-87
2021/07/31 13:00:29;;;;;;;2.25;0.70;;;19.90;99.90;;;;;;4934518;28;20090;-86
2021/07/31 13:03:04;;;;;;;1.73;0.70;;;19.80;99.90;;;;;;4934901;28;20051;-85
2021/07/31 13:05:31;;;;;;;2.65;0.55;;;19.70;99.90;;;;;;4949449;28;20107;-87
2021/07/31 13:08:06;;;;;;;3.25;0.50;;;19.70;99.90;;;;;;4949027;28;20495;-85
2021/07/31 13:10:34;;;;;;;1.67;0.40;;;19.80;99.90;;;;;;4950530;28;20129;-86
2021/07/31 13:13:03;;;;;;;;;;;19.90;99.90;;;;;;4949332;28;20055;-86
2021/07/31 13:15:35;;;;;;;1.63;0.40;;;20.00;99.90;;;;;;4948343;28;20462;-85
2021/07/31 13:18:10;;;;;;;1.88;0.60;;;20.10;99.90;;;;;;4948262;28;20043;-85